Terminal Aerodrome Forecast
Issued by NWS

Home | Current Version | Previous Version | Graphics & Text | Print | Product List | Glossary Off
Versions: 1 2 3 4 5 6 7 8 9 10 11 12 13 14 15 16 17

682
FTUS43 KGRB 042326
TAFATW
TAF
KATW 042326Z 0500/0524 17004KT 1 1/2SM -SN BKN004 OVC009
     FM050100 21008KT 2SM -FZDZSN BKN005 OVC010
     FM050300 23010KT 4SM BR OVC012
     FM050600 24009KT P6SM OVC015
     FM051400 21007KT P6SM BKN250
     FM051800 17010KT P6SM BKN080=

USA.gov is the U.S. government's official web portal to all federal, state and local government web resources and services.